createdAt,value
2019-03-16T00:00:37.869Z,12.65
2019-03-16T00:01:16.916Z,12.05
2019-03-16T00:01:57.376Z,13.85
2019-03-16T00:02:35.417Z,12.37
2019-03-16T00:03:13.977Z,12.58
2019-03-16T00:03:52.495Z,12.50
2019-03-16T00:04:31.056Z,12.90
2019-03-16T00:05:10.525Z,12.93
2019-03-16T00:05:49.632Z,13.10
2019-03-16T00:06:29.898Z,12.93
2019-03-16T00:07:08.956Z,12.98
2019-03-16T00:07:48.338Z,12.18
2019-03-16T00:08:27.637Z,13.70
2019-03-16T00:09:06.853Z,12.28
2019-03-16T00:09:45.322Z,12.95
2019-03-16T00:10:24.042Z,12.33
2019-03-16T00:11:02.809Z,12.63
2019-03-16T00:11:42.073Z,12.30
2019-03-16T00:12:20.666Z,12.33
2019-03-16T00:12:59.143Z,12.00
2019-03-16T00:13:37.994Z,13.58
2019-03-16T00:14:16.526Z,12.10
2019-03-16T00:14:55.085Z,12.47
2019-03-16T00:15:33.681Z,11.25
2019-03-16T00:16:12.666Z,12.03
2019-03-16T00:16:51.952Z,12.50
2019-03-16T00:17:30.926Z,12.43
2019-03-16T00:18:09.982Z,13.25
2019-03-16T00:18:49.062Z,11.55
2019-03-16T00:19:28.042Z,12.40
2019-03-16T00:20:06.544Z,12.35
2019-03-16T00:20:44.959Z,11.85
2019-03-16T00:21:23.667Z,11.90
2019-03-16T00:22:02.173Z,12.10
2019-03-16T00:22:41.245Z,12.30
2019-03-16T00:23:20.152Z,12.35
2019-03-16T00:23:58.709Z,11.50
2019-03-16T00:24:39.158Z,12.77
2019-03-16T00:25:17.633Z,13.13
2019-03-16T00:25:56.648Z,12.23
2019-03-16T00:26:35.161Z,12.30
2019-03-16T00:27:13.724Z,11.60
2019-03-16T00:27:52.681Z,11.70
2019-03-16T00:28:31.858Z,12.07
2019-03-16T00:29:10.369Z,12.95
2019-03-16T00:29:49.665Z,12.18
2019-03-16T00:30:28.985Z,11.50
2019-03-16T00:31:08.476Z,11.20
2019-03-16T00:31:47.820Z,12.23
2019-03-16T00:32:26.405Z,11.83
2019-03-16T00:33:05.020Z,12.40
2019-03-16T00:33:43.529Z,12.33
2019-03-16T00:34:22.609Z,12.50
2019-03-16T00:35:01.767Z,12.28
2019-03-16T00:35:40.570Z,12.68
2019-03-16T00:36:19.830Z,11.35
2019-03-16T00:36:58.322Z,11.97
2019-03-16T00:37:36.767Z,11.30
2019-03-16T00:38:15.216Z,12.65
2019-03-16T00:38:54.033Z,11.88
2019-03-16T00:39:33.146Z,12.43
2019-03-16T00:40:12.345Z,11.75
2019-03-16T00:40:51.434Z,12.55
2019-03-16T00:41:30.654Z,11.60
2019-03-16T00:42:10.003Z,11.75
2019-03-16T00:42:48.488Z,12.47
2019-03-16T00:43:27.557Z,12.37
2019-03-16T00:44:06.237Z,11.95
2019-03-16T00:44:44.925Z,12.58
2019-03-16T00:45:23.933Z,11.55
2019-03-16T00:46:03.296Z,11.75
2019-03-16T00:46:42.429Z,12.30
2019-03-16T00:47:21.466Z,11.50
2019-03-16T00:48:00.628Z,10.82
2019-03-16T00:48:39.126Z,11.40
2019-03-16T00:49:17.569Z,11.88
2019-03-16T00:49:56.236Z,10.60
2019-03-16T00:50:35.456Z,11.97
2019-03-16T00:51:14.395Z,10.90
2019-03-16T00:51:53.813Z,11.10
2019-03-16T00:52:32.557Z,10.88
2019-03-16T00:53:11.057Z,11.85
2019-03-16T00:53:49.586Z,11.63
2019-03-16T00:54:28.186Z,12.18
2019-03-16T00:55:06.914Z,11.20
2019-03-16T00:55:45.921Z,12.05
2019-03-16T00:56:25.066Z,11.03
2019-03-16T00:57:04.397Z,11.50
2019-03-16T00:57:43.386Z,10.98
2019-03-16T00:58:22.543Z,11.25
2019-03-16T00:59:01.543Z,12.13
2019-03-16T00:59:40.718Z,10.55
2019-03-16T01:00:19.222Z,10.68
2019-03-16T01:00:58.627Z,12.07
2019-03-16T01:01:37.099Z,11.53
2019-03-16T01:02:26.436Z,10.58
2019-03-16T01:02:56.041Z,11.20
2019-03-16T01:03:35.167Z,11.55
2019-03-16T01:04:14.632Z,11.63
2019-03-16T01:04:53.362Z,11.18
2019-03-16T01:05:32.453Z,11.00
2019-03-16T01:06:10.946Z,10.65
2019-03-16T01:06:50.009Z,10.78
2019-03-16T01:07:28.489Z,10.48
2019-03-16T01:08:07.434Z,11.00
2019-03-16T01:08:46.567Z,10.60
2019-03-16T01:09:25.527Z,11.20
2019-03-16T01:10:06.019Z,10.60
2019-03-16T01:10:45.127Z,10.93
2019-03-16T01:11:24.120Z,11.53
2019-03-16T01:12:03.139Z,11.28
2019-03-16T01:12:42.224Z,11.00
2019-03-16T01:13:20.937Z,11.55
2019-03-16T01:14:00.048Z,11.30
2019-03-16T01:14:38.518Z,10.47
2019-03-16T01:15:17.300Z,11.15
2019-03-16T01:15:57.106Z,11.30
2019-03-16T01:16:36.022Z,11.10
2019-03-16T01:17:15.235Z,10.70
2019-03-16T01:17:54.358Z,11.53
2019-03-16T01:18:33.578Z,11.83
2019-03-16T01:19:12.617Z,11.45
2019-03-16T01:19:51.878Z,10.98
2019-03-16T01:20:30.433Z,12.15
2019-03-16T01:21:08.926Z,11.08
2019-03-16T01:21:47.642Z,11.48
2019-03-16T01:22:26.844Z,10.98
2019-03-16T01:23:05.931Z,11.78
2019-03-16T01:23:44.876Z,11.45
2019-03-16T01:24:23.962Z,10.55
2019-03-16T01:25:05.156Z,11.10
2019-03-16T01:25:43.313Z,11.35
2019-03-16T01:26:22.291Z,10.43
2019-03-16T01:27:00.815Z,10.95
2019-03-16T01:27:39.285Z,11.53
2019-03-16T01:28:18.488Z,10.80
2019-03-16T01:28:58.026Z,11.40
2019-03-16T01:29:37.345Z,11.65
2019-03-16T01:30:17.579Z,11.95
2019-03-16T01:30:56.595Z,12.40
2019-03-16T01:31:35.612Z,11.15
2019-03-16T01:32:15.350Z,12.25
2019-03-16T01:32:53.833Z,11.40
2019-03-16T01:33:33.131Z,12.13
2019-03-16T01:34:12.023Z,11.40
2019-03-16T01:34:51.148Z,11.70
2019-03-16T01:35:29.595Z,11.57
2019-03-16T01:36:08.567Z,11.55
2019-03-16T01:37:05.701Z,11.28
2019-03-16T01:37:44.845Z,12.58
2019-03-16T01:38:24.043Z,12.10
2019-03-16T01:39:03.346Z,12.60
2019-03-16T01:39:41.794Z,12.43
2019-03-16T01:40:20.230Z,11.08
2019-03-16T01:40:59.114Z,11.12
2019-03-16T01:41:38.228Z,12.10
2019-03-16T01:42:17.432Z,10.60
2019-03-16T01:42:57.126Z,11.95
2019-03-16T01:43:36.387Z,11.63
2019-03-16T01:44:15.025Z,10.82
2019-03-16T01:44:53.625Z,11.70
2019-03-16T01:45:32.254Z,11.12
2019-03-16T01:46:10.807Z,11.35
2019-03-16T01:46:49.322Z,11.43
2019-03-16T01:47:27.880Z,12.10
2019-03-16T01:48:07.238Z,11.70
2019-03-16T01:48:46.392Z,11.50
2019-03-16T01:49:25.008Z,12.15
2019-03-16T01:50:04.272Z,10.55
2019-03-16T01:50:42.804Z,11.43
2019-03-16T01:51:21.310Z,11.20
2019-03-16T01:52:00.395Z,11.50
2019-03-16T01:52:39.442Z,11.00
2019-03-16T01:53:18.717Z,10.63
2019-03-16T01:53:57.852Z,11.80
2019-03-16T01:54:39.029Z,11.45
2019-03-16T01:55:17.328Z,11.35
2019-03-16T01:55:55.848Z,11.80
2019-03-16T01:56:34.930Z,11.97
2019-03-16T01:57:13.766Z,11.60
2019-03-16T01:57:52.366Z,11.57
2019-03-16T01:58:30.860Z,11.43
2019-03-16T01:59:09.884Z,12.13
2019-03-16T01:59:51.527Z,11.85
2019-03-16T02:00:30.274Z,12.30
2019-03-16T02:01:09.560Z,12.65
2019-03-16T02:01:49.505Z,13.05
2019-03-16T02:02:28.632Z,12.45
2019-03-16T02:03:07.170Z,12.80
2019-03-16T02:03:45.928Z,12.82
2019-03-16T02:04:25.215Z,11.90
2019-03-16T02:05:03.949Z,12.15
2019-03-16T02:05:42.781Z,12.00
2019-03-16T02:06:21.816Z,12.35
2019-03-16T02:07:01.084Z,12.73
2019-03-16T02:07:39.556Z,12.95
2019-03-16T02:08:20.682Z,12.50
2019-03-16T02:09:00.682Z,11.90
2019-03-16T02:09:39.652Z,12.28
2019-03-16T02:10:18.468Z,13.05
2019-03-16T02:11:01.318Z,13.00
2019-03-16T02:11:40.370Z,12.15
2019-03-16T02:12:19.033Z,13.10
2019-03-16T02:12:59.525Z,12.50
2019-03-16T02:13:38.894Z,12.37
2019-03-16T02:14:17.419Z,12.55
2019-03-16T02:14:56.589Z,13.60
2019-03-16T02:15:35.709Z,13.43
2019-03-16T02:16:14.827Z,12.75
2019-03-16T02:16:53.270Z,12.70
2019-03-16T02:17:32.958Z,13.43
2019-03-16T02:18:11.533Z,12.03
2019-03-16T02:18:50.070Z,14.05
2019-03-16T02:19:28.554Z,14.07
2019-03-16T02:20:08.125Z,13.10
2019-03-16T02:20:47.440Z,14.05
2019-03-16T02:21:31.824Z,13.18
2019-03-16T02:22:14.018Z,14.10
2019-03-16T02:22:52.617Z,13.00
2019-03-16T02:23:32.005Z,13.75
2019-03-16T02:24:11.786Z,13.60
2019-03-16T02:24:50.811Z,13.72
2019-03-16T02:25:29.534Z,13.45
2019-03-16T02:26:08.853Z,13.40
2019-03-16T02:26:48.035Z,13.72
2019-03-16T02:27:26.857Z,14.30
2019-03-16T02:28:06.614Z,14.35
2019-03-16T02:28:45.082Z,13.40
2019-03-16T02:29:23.668Z,13.68
2019-03-16T02:30:02.679Z,13.15
2019-03-16T02:30:41.951Z,14.10
2019-03-16T02:31:20.413Z,14.13
2019-03-16T02:31:59.554Z,14.03
2019-03-16T02:32:38.664Z,13.50
2019-03-16T02:33:17.875Z,13.05
2019-03-16T02:33:57.836Z,14.18
2019-03-16T02:34:36.484Z,13.57
2019-03-16T02:35:14.956Z,13.98
2019-03-16T02:35:53.659Z,13.90
2019-03-16T02:36:32.752Z,12.60
2019-03-16T02:37:11.967Z,14.63
2019-03-16T02:37:51.398Z,14.30
2019-03-16T02:38:29.942Z,13.25
2019-03-16T02:39:09.654Z,14.15
2019-03-16T02:39:48.905Z,13.88
2019-03-16T02:40:27.381Z,12.82
2019-03-16T02:41:05.878Z,14.60
2019-03-16T02:41:44.362Z,14.25
2019-03-16T02:42:23.204Z,13.60
2019-03-16T02:43:02.305Z,13.67
2019-03-16T02:43:41.411Z,14.63
2019-03-16T02:44:20.058Z,14.43
2019-03-16T02:44:58.763Z,14.45
2019-03-16T02:45:37.317Z,13.72
2019-03-16T02:46:15.882Z,14.78
2019-03-16T02:46:54.782Z,14.33
2019-03-16T02:47:33.861Z,14.70
2019-03-16T02:48:12.477Z,14.83
2019-03-16T02:48:51.549Z,15.40
2019-03-16T02:49:29.986Z,14.60
2019-03-16T02:50:08.876Z,14.65
2019-03-16T02:50:47.378Z,14.60
2019-03-16T02:51:26.021Z,15.20
2019-03-16T02:52:05.214Z,14.47
2019-03-16T02:52:44.305Z,14.35
2019-03-16T02:53:23.685Z,13.68
2019-03-16T02:54:02.844Z,14.63
2019-03-16T02:54:42.261Z,14.83
2019-03-16T02:55:22.015Z,15.05
2019-03-16T02:56:02.129Z,14.63
2019-03-16T02:56:41.395Z,15.60
2019-03-16T02:57:20.187Z,14.85
2019-03-16T02:57:59.542Z,15.18
2019-03-16T02:58:38.550Z,16.03
2019-03-16T02:59:17.775Z,15.10
2019-03-16T02:59:56.381Z,15.03
2019-03-16T03:00:34.980Z,15.13
2019-03-16T03:01:16.745Z,14.80
2019-03-16T03:01:58.648Z,14.75
2019-03-16T03:02:37.187Z,14.83
2019-03-16T03:03:28.656Z,14.45
2019-03-16T03:03:56.245Z,16.90
2019-03-16T03:04:35.421Z,15.87
2019-03-16T03:05:14.724Z,15.03
2019-03-16T03:05:53.861Z,15.05
2019-03-16T03:06:32.919Z,14.17
2019-03-16T03:07:11.589Z,14.38
2019-03-16T03:07:50.211Z,15.75
2019-03-16T03:08:28.915Z,14.30
2019-03-16T03:09:09.709Z,15.05
2019-03-16T03:09:48.195Z,16.02
2019-03-16T03:10:27.210Z,14.45
2019-03-16T03:11:06.298Z,16.17
2019-03-16T03:11:45.579Z,16.40
2019-03-16T03:12:25.578Z,16.40
2019-03-16T03:13:04.050Z,16.55
2019-03-16T03:13:43.040Z,16.53
2019-03-16T03:14:22.037Z,17.02
2019-03-16T03:15:01.221Z,17.23
2019-03-16T03:15:39.711Z,16.07
2019-03-16T03:16:18.146Z,16.77
2019-03-16T03:16:57.187Z,17.30
2019-03-16T03:17:36.109Z,17.73
2019-03-16T03:18:15.383Z,17.12
2019-03-16T03:18:54.150Z,17.05
2019-03-16T03:19:32.715Z,18.02
2019-03-16T03:20:11.905Z,17.05
2019-03-16T03:20:51.696Z,16.67
2019-03-16T03:21:32.380Z,17.47
2019-03-16T03:22:11.150Z,17.70
2019-03-16T03:22:50.791Z,17.80
2019-03-16T03:23:29.305Z,17.47
2019-03-16T03:24:08.156Z,18.50
2019-03-16T03:24:47.261Z,16.70
2019-03-16T03:25:26.786Z,17.80
2019-03-16T03:26:06.301Z,18.30
2019-03-16T03:26:45.788Z,18.57
2019-03-16T03:27:24.971Z,19.03
2019-03-16T03:28:04.301Z,18.83
2019-03-16T03:28:45.593Z,18.10
2019-03-16T03:29:26.067Z,17.93
2019-03-16T03:30:06.371Z,18.13
2019-03-16T03:30:45.754Z,16.65
2019-03-16T03:31:24.967Z,18.70
2019-03-16T03:32:04.119Z,17.55
2019-03-16T03:32:44.007Z,18.40
2019-03-16T03:33:24.932Z,17.67
2019-03-16T03:34:04.276Z,19.50
2019-03-16T03:34:43.637Z,18.73
2019-03-16T03:35:28.761Z,18.93
2019-03-16T03:36:05.319Z,18.70
2019-03-16T03:36:44.298Z,19.55
2019-03-16T03:37:24.098Z,20.07
2019-03-16T03:38:02.968Z,19.95
2019-03-16T03:38:41.666Z,18.57
2019-03-16T03:39:20.133Z,19.27
2019-03-16T03:39:59.000Z,20.15
2019-03-16T03:40:38.162Z,19.87
2019-03-16T03:41:17.371Z,20.12
2019-03-16T03:42:02.498Z,20.10
2019-03-16T03:42:41.527Z,19.27
2019-03-16T03:43:20.435Z,18.35
2019-03-16T03:43:59.269Z,18.83
2019-03-16T03:44:38.379Z,19.10
2019-03-16T03:45:19.350Z,20.03
2019-03-16T03:45:58.483Z,19.50
2019-03-16T03:46:39.061Z,18.63
2019-03-16T03:47:18.009Z,19.90
2019-03-16T03:47:57.118Z,18.50
2019-03-16T03:48:35.543Z,19.03
2019-03-16T03:49:14.877Z,19.50
2019-03-16T03:49:53.416Z,20.10
2019-03-16T03:50:31.905Z,19.63
2019-03-16T03:51:10.385Z,19.00
2019-03-16T03:51:49.285Z,20.57
2019-03-16T03:52:28.506Z,18.90
2019-03-16T03:53:07.803Z,17.07
2019-03-16T03:53:46.853Z,19.10
2019-03-16T03:54:25.482Z,19.70
2019-03-16T03:55:04.282Z,20.30
2019-03-16T03:55:42.875Z,18.70
2019-03-16T03:56:21.426Z,19.42
2019-03-16T03:56:59.869Z,18.75
2019-03-16T03:57:41.570Z,19.53
2019-03-16T03:58:23.637Z,19.50
2019-03-16T03:59:02.595Z,18.63
2019-03-16T03:59:41.157Z,19.33
2019-03-16T04:00:19.716Z,19.90
2019-03-16T04:00:58.651Z,18.57
2019-03-16T04:01:37.707Z,19.27
2019-03-16T04:02:16.276Z,19.47
2019-03-16T04:02:55.684Z,19.50
2019-03-16T04:03:34.905Z,18.75
2019-03-16T04:04:16.078Z,19.20
2019-03-16T04:04:55.615Z,20.53
2019-03-16T04:05:34.859Z,20.83
2019-03-16T04:06:13.530Z,19.00
2019-03-16T04:06:53.034Z,20.30
2019-03-16T04:07:31.539Z,19.63
2019-03-16T04:08:10.267Z,19.10
2019-03-16T04:08:49.567Z,19.53
2019-03-16T04:09:28.418Z,18.10
2019-03-16T04:10:08.198Z,19.07
2019-03-16T04:10:47.436Z,18.97
2019-03-16T04:11:25.986Z,19.10
2019-03-16T04:12:04.461Z,18.53
2019-03-16T04:12:42.980Z,20.47
2019-03-16T04:13:21.725Z,20.30
2019-03-16T04:14:00.840Z,19.57
2019-03-16T04:14:39.644Z,19.10
2019-03-16T04:15:18.837Z,19.13
2019-03-16T04:15:57.979Z,19.90
2019-03-16T04:16:37.245Z,20.43
2019-03-16T04:17:16.368Z,19.75
2019-03-16T04:17:54.872Z,18.57
2019-03-16T04:18:34.514Z,19.73
2019-03-16T04:19:13.792Z,19.67
2019-03-16T04:19:52.341Z,20.90
2019-03-16T04:20:31.584Z,19.30
2019-03-16T04:21:10.610Z,19.63
2019-03-16T04:21:49.690Z,19.37
2019-03-16T04:22:28.891Z,18.77
2019-03-16T04:23:07.946Z,20.90
2019-03-16T04:23:47.047Z,20.30
2019-03-16T04:24:25.559Z,18.97
2019-03-16T04:25:04.796Z,22.00
2019-03-16T04:25:43.744Z,22.30
2019-03-16T04:26:22.242Z,19.57
2019-03-16T04:27:15.175Z,20.33
2019-03-16T04:27:41.723Z,19.77
2019-03-16T04:28:20.225Z,19.43
2019-03-16T04:28:59.637Z,20.83
2019-03-16T04:29:38.774Z,19.95
2019-03-16T04:30:17.380Z,20.90
2019-03-16T04:30:56.451Z,20.57
2019-03-16T04:31:35.442Z,20.47
2019-03-16T04:32:14.789Z,21.03
2019-03-16T04:32:53.535Z,21.07
2019-03-16T04:33:32.689Z,21.63
2019-03-16T04:34:11.975Z,20.80
2019-03-16T04:34:50.810Z,20.40
2019-03-16T04:35:29.751Z,20.50
2019-03-16T04:36:08.919Z,20.27
2019-03-16T04:36:48.415Z,18.50
2019-03-16T04:37:26.853Z,20.10
2019-03-16T04:38:05.273Z,21.67
2019-03-16T04:38:44.178Z,20.37
2019-03-16T04:39:23.091Z,21.50
2019-03-16T04:40:02.093Z,21.53
2019-03-16T04:40:40.849Z,20.67
2019-03-16T04:41:20.103Z,19.47
2019-03-16T04:41:58.617Z,21.60
2019-03-16T04:42:37.122Z,20.13
2019-03-16T04:43:15.529Z,20.80
2019-03-16T04:43:54.159Z,21.37
2019-03-16T04:44:33.409Z,21.03
2019-03-16T04:45:16.210Z,19.80
2019-03-16T04:45:56.810Z,20.00
2019-03-16T04:46:37.486Z,21.53
2019-03-16T04:47:16.629Z,22.30
2019-03-16T04:47:55.254Z,19.83
2019-03-16T04:48:34.130Z,20.27
2019-03-16T04:49:13.044Z,21.60
2019-03-16T04:49:52.244Z,20.53
2019-03-16T04:50:31.485Z,21.67
2019-03-16T04:51:10.016Z,19.53
2019-03-16T04:51:48.469Z,20.30
2019-03-16T04:52:27.502Z,20.27
2019-03-16T04:53:06.059Z,22.13
2019-03-16T04:53:44.978Z,20.80
2019-03-16T04:54:23.826Z,20.60
2019-03-16T04:55:03.043Z,20.73
2019-03-16T04:55:41.564Z,20.87
2019-03-16T04:56:20.539Z,20.67
2019-03-16T04:56:59.610Z,22.07
2019-03-16T04:57:38.109Z,21.83
2019-03-16T04:58:17.087Z,22.67
2019-03-16T04:58:55.558Z,20.17
2019-03-16T04:59:34.004Z,22.50
2019-03-16T05:00:13.079Z,20.37
2019-03-16T05:00:56.670Z,21.23
2019-03-16T05:01:38.457Z,21.43
2019-03-16T05:02:19.377Z,21.70
2019-03-16T05:03:08.617Z,20.70
2019-03-16T05:03:49.091Z,21.83
2019-03-16T05:04:41.675Z,18.90
2019-03-16T05:05:10.079Z,22.30
2019-03-16T05:05:59.675Z,20.10
2019-03-16T05:06:39.231Z,20.67
2019-03-16T05:07:17.822Z,22.10
2019-03-16T05:07:56.714Z,22.40
2019-03-16T05:08:37.693Z,22.00
2019-03-16T05:09:16.401Z,22.00
2019-03-16T05:09:54.900Z,22.47
2019-03-16T05:10:34.064Z,23.33
2019-03-16T05:11:13.144Z,22.33
2019-03-16T05:11:52.204Z,21.60
2019-03-16T05:12:31.506Z,21.90
2019-03-16T05:13:10.727Z,22.63
2019-03-16T05:13:49.294Z,21.50
2019-03-16T05:14:27.906Z,21.13
2019-03-16T05:15:06.614Z,22.20
2019-03-16T05:15:45.729Z,21.80
2019-03-16T05:16:24.802Z,22.30
2019-03-16T05:17:03.880Z,23.17
2019-03-16T05:17:42.881Z,23.87
2019-03-16T05:18:21.389Z,22.30
2019-03-16T05:19:00.490Z,22.10
2019-03-16T05:19:39.611Z,21.67
2019-03-16T05:20:18.076Z,22.93
2019-03-16T05:20:56.861Z,23.70
2019-03-16T05:21:35.891Z,21.53
2019-03-16T05:22:15.888Z,22.70
2019-03-16T05:22:55.208Z,22.80
2019-03-16T05:23:33.945Z,23.77
2019-03-16T05:24:12.869Z,23.53
2019-03-16T05:24:51.401Z,22.60
2019-03-16T05:25:29.918Z,23.33
2019-03-16T05:26:08.438Z,22.50
2019-03-16T05:26:47.344Z,21.50
2019-03-16T05:27:26.158Z,22.10
2019-03-16T05:28:05.285Z,22.30
2019-03-16T05:28:43.787Z,23.10
2019-03-16T05:29:23.275Z,21.20
2019-03-16T05:30:02.314Z,21.73
2019-03-16T05:30:41.061Z,23.30
2019-03-16T05:31:20.122Z,22.87
2019-03-16T05:31:58.819Z,23.07
2019-03-16T05:32:37.692Z,22.70
2019-03-16T05:33:16.832Z,23.57
2019-03-16T05:33:56.231Z,22.67
2019-03-16T05:34:35.311Z,22.80
2019-03-16T05:35:15.208Z,22.93
2019-03-16T05:35:54.294Z,22.50
2019-03-16T05:36:33.292Z,22.83
2019-03-16T05:37:11.771Z,22.20
2019-03-16T05:37:51.029Z,22.30
2019-03-16T05:38:29.618Z,23.67
2019-03-16T05:39:09.758Z,23.53
2019-03-16T05:39:48.568Z,22.87
2019-03-16T05:40:27.052Z,22.47
2019-03-16T05:41:06.003Z,22.37
2019-03-16T05:41:48.256Z,20.70
2019-03-16T05:42:29.187Z,24.10
2019-03-16T05:43:09.049Z,22.53
2019-03-16T05:43:50.272Z,23.10
2019-03-16T05:44:30.057Z,20.50
2019-03-16T05:45:08.877Z,21.23
2019-03-16T05:45:47.607Z,21.67
2019-03-16T05:46:26.686Z,21.90
2019-03-16T05:47:05.695Z,21.77
2019-03-16T05:47:44.589Z,21.40
2019-03-16T05:48:23.774Z,21.17
2019-03-16T05:49:02.534Z,21.67
2019-03-16T05:49:41.701Z,23.30
2019-03-16T05:50:20.271Z,22.40
2019-03-16T05:50:59.278Z,23.23
2019-03-16T05:51:38.122Z,20.77
2019-03-16T05:52:17.386Z,21.90
2019-03-16T05:52:56.441Z,21.40
2019-03-16T05:53:35.657Z,21.60
2019-03-16T05:54:14.188Z,21.67
2019-03-16T05:54:53.256Z,22.30
2019-03-16T05:55:31.579Z,22.20
2019-03-16T05:56:10.221Z,21.53
2019-03-16T05:56:49.306Z,22.03
2019-03-16T05:57:28.518Z,21.53
2019-03-16T05:58:07.464Z,22.77
2019-03-16T05:58:46.621Z,23.67
2019-03-16T05:59:25.761Z,23.87
2019-03-16T06:00:04.244Z,22.83
2019-03-16T06:00:43.357Z,23.57
2019-03-16T06:01:21.772Z,22.27
2019-03-16T06:02:00.439Z,22.93
2019-03-16T06:02:39.514Z,21.90
2019-03-16T06:03:18.622Z,22.73
2019-03-16T06:03:57.646Z,22.27
2019-03-16T06:04:36.852Z,20.80
2019-03-16T06:05:15.990Z,21.10
2019-03-16T06:05:54.685Z,24.20
2019-03-16T06:06:33.862Z,21.50
2019-03-16T06:07:12.359Z,21.20
2019-03-16T06:07:51.075Z,19.63
2019-03-16T06:08:29.841Z,20.00
2019-03-16T06:09:09.617Z,20.50
2019-03-16T06:09:48.670Z,20.47
2019-03-16T06:10:27.892Z,20.70
2019-03-16T06:11:06.864Z,20.97
2019-03-16T06:11:46.209Z,21.17
2019-03-16T06:12:25.466Z,20.57
2019-03-16T06:13:04.550Z,20.13
2019-03-16T06:13:43.720Z,20.27
2019-03-16T06:14:22.236Z,20.30
2019-03-16T06:15:01.039Z,20.53
2019-03-16T06:15:39.681Z,21.10
2019-03-16T06:16:18.216Z,20.83
2019-03-16T06:16:57.434Z,21.40
2019-03-16T06:17:39.408Z,20.50
2019-03-16T06:18:17.868Z,20.83
2019-03-16T06:18:57.114Z,21.00
2019-03-16T06:19:35.594Z,19.63
2019-03-16T06:20:14.912Z,19.67
2019-03-16T06:20:53.419Z,20.70
2019-03-16T06:21:32.230Z,20.20
2019-03-16T06:22:11.267Z,20.67
2019-03-16T06:22:50.277Z,19.77
2019-03-16T06:23:29.330Z,21.70
2019-03-16T06:24:08.411Z,20.80
2019-03-16T06:24:47.424Z,20.90
2019-03-16T06:25:26.156Z,21.27
2019-03-16T06:26:04.681Z,19.93
2019-03-16T06:26:43.128Z,19.50
2019-03-16T06:27:21.669Z,18.97
2019-03-16T06:28:00.259Z,21.00
2019-03-16T06:28:39.156Z,19.97
2019-03-16T06:29:21.056Z,19.50
2019-03-16T06:29:59.826Z,20.83
2019-03-16T06:30:39.072Z,19.13
2019-03-16T06:31:20.515Z,21.00
2019-03-16T06:31:59.454Z,20.80
2019-03-16T06:32:38.574Z,19.33
2019-03-16T06:33:17.048Z,20.87
2019-03-16T06:33:56.435Z,19.93
2019-03-16T06:34:35.584Z,20.33
2019-03-16T06:35:24.669Z,20.30
2019-03-16T06:35:55.371Z,19.20
2019-03-16T06:36:34.064Z,20.80
2019-03-16T06:37:12.797Z,20.50
2019-03-16T06:37:53.973Z,19.50
2019-03-16T06:38:33.414Z,20.30
2019-03-16T06:39:14.184Z,20.53
2019-03-16T06:39:54.693Z,21.30
2019-03-16T06:40:37.995Z,19.90
2019-03-16T06:41:25.611Z,20.30
2019-03-16T06:42:17.561Z,20.47
2019-03-16T06:42:56.448Z,20.73
2019-03-16T06:43:35.223Z,19.03
2019-03-16T06:44:14.366Z,21.15
2019-03-16T06:44:53.254Z,20.07
2019-03-16T06:45:32.852Z,20.37
2019-03-16T06:46:11.366Z,19.73
2019-03-16T06:46:50.232Z,19.00
2019-03-16T06:47:28.718Z,20.10
2019-03-16T06:48:07.991Z,19.47
2019-03-16T06:48:46.545Z,19.80
2019-03-16T06:49:25.036Z,20.23
2019-03-16T06:50:03.527Z,19.27
2019-03-16T06:50:42.686Z,19.60
2019-03-16T06:51:21.776Z,18.53
2019-03-16T06:52:00.886Z,18.83
2019-03-16T06:52:40.217Z,19.50
2019-03-16T06:53:19.948Z,19.83
2019-03-16T06:53:58.866Z,19.77
2019-03-16T06:54:37.371Z,19.37
2019-03-16T06:55:16.725Z,20.10
2019-03-16T06:55:55.621Z,19.90
2019-03-16T06:56:34.306Z,18.90
2019-03-16T06:57:13.384Z,20.13
2019-03-16T06:57:52.049Z,18.60
2019-03-16T06:58:31.295Z,20.50
2019-03-16T06:59:10.409Z,20.77
2019-03-16T06:59:50.957Z,19.80
2019-03-16T07:00:30.130Z,18.77
2019-03-16T07:01:09.248Z,19.27
2019-03-16T07:01:48.096Z,19.50
2019-03-16T07:02:27.826Z,19.23
2019-03-16T07:03:06.535Z,21.20
2019-03-16T07:03:45.223Z,19.83
2019-03-16T07:04:23.982Z,20.07
2019-03-16T07:05:03.138Z,19.33
2019-03-16T07:05:41.663Z,20.43
2019-03-16T07:06:21.199Z,19.70
2019-03-16T07:07:00.212Z,20.53
2019-03-16T07:07:38.875Z,20.57
2019-03-16T07:08:17.388Z,19.07
2019-03-16T07:08:56.032Z,19.23
2019-03-16T07:09:34.723Z,19.73
2019-03-16T07:10:13.752Z,19.13
2019-03-16T07:10:52.629Z,20.13
2019-03-16T07:11:31.670Z,19.80
2019-03-16T07:12:11.000Z,19.43
2019-03-16T07:12:51.421Z,19.47
2019-03-16T07:13:32.483Z,18.33
2019-03-16T07:14:15.155Z,20.10
2019-03-16T07:14:58.304Z,18.57
2019-03-16T07:15:38.647Z,19.27
2019-03-16T07:16:21.907Z,18.90
2019-03-16T07:17:04.669Z,19.47
2019-03-16T07:17:44.311Z,19.90
2019-03-16T07:18:25.231Z,20.00
2019-03-16T07:19:04.582Z,20.10
2019-03-16T07:19:45.146Z,19.70
2019-03-16T07:20:23.932Z,21.03
2019-03-16T07:21:08.323Z,20.90
2019-03-16T07:21:50.746Z,21.30
2019-03-16T07:22:34.629Z,21.43
2019-03-16T07:23:16.404Z,21.13
2019-03-16T07:24:00.171Z,21.03
2019-03-16T07:24:44.700Z,22.60
2019-03-16T07:25:24.663Z,20.63
2019-03-16T07:26:14.231Z,21.23
2019-03-16T07:26:45.854Z,21.10
2019-03-16T07:27:28.113Z,21.10
2019-03-16T07:28:09.835Z,21.20
2019-03-16T07:28:48.346Z,19.77
2019-03-16T07:29:29.049Z,20.70
2019-03-16T07:30:08.285Z,19.93
2019-03-16T07:30:46.844Z,20.50
2019-03-16T07:31:25.939Z,20.90
2019-03-16T07:32:05.073Z,21.57
2019-03-16T07:32:44.065Z,20.23
2019-03-16T07:33:23.723Z,22.43
2019-03-16T07:34:08.389Z,21.13
2019-03-16T07:34:48.177Z,20.83
2019-03-16T07:35:28.333Z,20.93
2019-03-16T07:36:07.292Z,20.57
2019-03-16T07:36:46.916Z,19.57
2019-03-16T07:37:29.363Z,19.87
2019-03-16T07:38:08.024Z,21.17
2019-03-16T07:38:53.522Z,20.93
2019-03-16T07:39:34.054Z,19.33
2019-03-16T07:40:13.375Z,19.47
2019-03-16T07:40:52.561Z,21.20
2019-03-16T07:41:34.940Z,20.50
2019-03-16T07:42:14.517Z,20.77
2019-03-16T07:42:53.062Z,19.90
2019-03-16T07:43:32.314Z,21.00
2019-03-16T07:44:10.957Z,20.47
2019-03-16T07:44:49.577Z,20.70
2019-03-16T07:45:28.507Z,19.00
2019-03-16T07:46:07.033Z,20.60
2019-03-16T07:46:46.387Z,19.27
2019-03-16T07:47:26.057Z,20.70
2019-03-16T07:48:05.850Z,19.83
2019-03-16T07:49:02.955Z,19.20
2019-03-16T07:49:41.949Z,18.80
2019-03-16T07:50:20.618Z,21.33
2019-03-16T07:50:59.105Z,20.70
2019-03-16T07:51:37.786Z,19.10
2019-03-16T07:52:18.231Z,20.03
2019-03-16T07:52:57.428Z,19.00
2019-03-16T07:53:36.443Z,21.10
2019-03-16T07:54:14.973Z,20.73
2019-03-16T07:54:53.788Z,20.67
2019-03-16T07:55:33.539Z,19.93
2019-03-16T07:56:12.291Z,19.57
2019-03-16T07:56:50.802Z,19.00
2019-03-16T07:57:39.506Z,18.90
2019-03-16T07:58:09.779Z,18.93
2019-03-16T07:58:48.137Z,21.23
2019-03-16T07:59:27.258Z,20.10
2019-03-16T08:00:06.798Z,20.00
2019-03-16T08:00:46.049Z,18.80
2019-03-16T08:01:25.116Z,20.83
2019-03-16T08:02:03.549Z,18.77
2019-03-16T08:02:42.160Z,19.30
2019-03-16T08:03:20.679Z,19.80
2019-03-16T08:04:00.226Z,20.23
2019-03-16T08:04:39.081Z,20.53
2019-03-16T08:05:19.209Z,19.50
2019-03-16T08:05:57.909Z,19.73
2019-03-16T08:06:39.900Z,19.97
2019-03-16T08:07:18.913Z,19.93
2019-03-16T08:07:57.504Z,18.43
2019-03-16T08:08:36.776Z,18.87
2019-03-16T08:09:15.711Z,18.43
2019-03-16T08:09:54.340Z,18.50
2019-03-16T08:10:33.096Z,18.50
2019-03-16T08:11:11.663Z,19.80
2019-03-16T08:11:51.808Z,17.83
2019-03-16T08:12:32.549Z,17.87
2019-03-16T08:13:10.470Z,18.03
2019-03-16T08:13:49.355Z,19.17
2019-03-16T08:14:28.518Z,18.67
2019-03-16T08:15:07.786Z,19.03
2019-03-16T08:15:47.031Z,20.10
2019-03-16T08:16:26.198Z,19.23
2019-03-16T08:17:05.354Z,19.50
2019-03-16T08:17:43.948Z,18.20
2019-03-16T08:18:25.060Z,20.10
2019-03-16T08:19:03.519Z,19.63
2019-03-16T08:19:42.531Z,21.00
2019-03-16T08:20:21.009Z,19.60
2019-03-16T08:20:59.960Z,19.97
2019-03-16T08:21:39.110Z,19.13
2019-03-16T08:22:17.764Z,19.70
2019-03-16T08:22:56.906Z,20.00
2019-03-16T08:23:35.517Z,18.93
2019-03-16T08:24:14.814Z,21.07
2019-03-16T08:24:53.304Z,19.70
2019-03-16T08:25:32.007Z,20.37
2019-03-16T08:26:11.025Z,19.60
2019-03-16T08:26:51.568Z,20.03